Time;durP1;ratioP1;P1;durP2;ratioP2;P2;SDS_P1;SDS_P2;PMS_P1;PMS_P2;Temp;Humidity;BMP_temperature;BMP_pressure;BME280_temperature;BME280_humidity;BME280_pressure;Samples;Min_cycle;Max_cycle;Signal;HPM_P1;HPM_P2
2021/06/07 00:00:30;;;;;;;66.28;46.95;;;;;;;;;;5073261;28;20020;-44
2021/06/07 00:02:57;;;;;;;64.13;46.30;;;;;;;;;;5073193;28;20060;-45
2021/06/07 00:05:23;;;;;;;48.17;35.58;;;;;;;;;;5073328;28;20024;-45
2021/06/07 00:07:50;;;;;;;59.95;41.17;;;;;;;;;;5072985;28;20025;-44
2021/06/07 00:10:17;;;;;;;26.95;24.15;;;;;;;;;;5073142;28;20031;-44
2021/06/07 00:12:46;;;;;;;27.17;22.67;;;;;;;;;;5073245;28;20096;-44
2021/06/07 00:15:14;;;;;;;47.28;35.17;;;;;;;;;;5073085;28;20145;-44
2021/06/07 00:17:40;;;;;;;42.78;31.33;;;;;;;;;;5073062;28;20028;-44
2021/06/07 00:20:09;;;;;;;54.55;40.42;;;;;;;;;;5073040;28;20024;-46
2021/06/07 00:22:35;;;;;;;60.55;45.80;;;;;;;;;;5072966;28;20030;-45
2021/06/07 00:25:02;;;;;;;43.05;36.05;;;;;;;;;;5072990;28;20078;-44
2021/06/07 00:27:28;;;;;;;36.03;27.98;;;;;;;;;;5073049;28;20067;-44
2021/06/07 00:29:54;;;;;;;43.22;36.58;;;;;;;;;;5073014;28;20028;-46
2021/06/07 00:32:20;;;;;;;49.90;37.03;;;;;;;;;;5072981;28;20033;-49
2021/06/07 00:34:46;;;;;;;50.80;38.92;;;;;;;;;;5076084;28;20104;-43
2021/06/07 00:37:12;;;;;;;66.28;50.72;;;;;;;;;;5076849;28;20032;-44
2021/06/07 00:39:41;;;;;;;52.40;36.78;;;;;;;;;;5076877;28;20092;-41
2021/06/07 00:42:07;;;;;;;35.25;27.08;;;;;;;;;;5076854;28;20028;-42
2021/06/07 00:44:33;;;;;;;29.42;22.10;;;;;;;;;;5076746;28;20025;-42
2021/06/07 00:46:59;;;;;;;25.83;18.40;;;;;;;;;;5076695;28;20025;-43
2021/06/07 00:49:25;;;;;;;31.25;19.75;;;;;;;;;;5076616;28;20029;-42
2021/06/07 00:51:51;;;;;;;28.88;16.85;;;;;;;;;;5076240;28;20048;-42
2021/06/07 00:54:17;;;;;;;23.90;16.80;;;;;;;;;;5076658;28;20048;-42
2021/06/07 00:56:44;;;;;;;17.85;14.50;;;;;;;;;;5076521;28;20012;-45
2021/06/07 00:59:10;;;;;;;24.67;18.25;;;;;;;;;;5076565;28;20021;-44
2021/06/07 01:01:36;;;;;;;33.40;25.65;;;;;;;;;;5076279;28;20476;-43
2021/06/07 01:04:03;;;;;;;40.33;30.88;;;;;;;;;;5076348;28;20029;-44
2021/06/07 01:06:30;;;;;;;19.60;16.70;;;;;;;;;;5076227;28;20503;-44
2021/06/07 01:08:56;;;;;;;18.08;16.20;;;;;;;;;;5076467;28;20078;-43
2021/06/07 01:11:22;;;;;;;22.33;18.40;;;;;;;;;;5076180;28;20482;-44
2021/06/07 01:13:51;;;;;;;26.85;17.60;;;;;;;;;;5076087;28;20491;-44
2021/06/07 01:16:17;;;;;;;20.58;16.23;;;;;;;;;;5076211;28;20017;-44
2021/06/07 01:18:43;;;;;;;23.50;16.70;;;;;;;;;;5076134;28;20026;-44
2021/06/07 01:21:11;;;;;;;21.92;16.20;;;;;;;;;;5076167;28;20033;-43
2021/06/07 01:23:40;;;;;;;19.33;15.10;;;;;;;;;;5076014;28;20506;-44
2021/06/07 01:26:06;;;;;;;23.70;18.08;;;;;;;;;;5075981;28;20024;-44
2021/06/07 01:28:33;;;;;;;42.03;26.77;;;;;;;;;;5076213;28;20472;-43
2021/06/07 01:30:59;;;;;;;38.63;28.60;;;;;;;;;;5075970;28;20043;-43
2021/06/07 01:33:26;;;;;;;34.53;21.33;;;;;;;;;;5057772;28;20055;-41
2021/06/07 01:35:56;;;;;;;28.20;23.83;;;;;;;;;;5075823;28;20092;-43
2021/06/07 01:38:27;;;;;;;37.78;24.08;;;;;;;;;;5075824;28;20504;-43
2021/06/07 01:40:58;;;;;;;24.20;17.55;;;;;;;;;;5075979;28;20065;-45
2021/06/07 01:43:25;;;;;;;27.85;19.38;;;;;;;;;;5075750;28;20396;-43
2021/06/07 01:45:51;;;;;;;31.40;23.27;;;;;;;;;;5075324;28;20064;-42
2021/06/07 01:48:18;;;;;;;46.03;25.77;;;;;;;;;;5075795;28;20107;-45
2021/06/07 01:50:45;;;;;;;27.75;21.13;;;;;;;;;;5075432;28;20032;-42
2021/06/07 01:53:12;;;;;;;28.45;20.13;;;;;;;;;;5075182;28;20456;-44
2021/06/07 01:55:40;;;;;;;34.35;27.48;;;;;;;;;;5057348;28;20062;-42
2021/06/07 01:58:07;;;;;;;61.33;46.65;;;;;;;;;;5075677;28;20107;-43
2021/06/07 02:00:33;;;;;;;75.47;53.78;;;;;;;;;;5075332;28;20025;-43
2021/06/07 02:02:59;;;;;;;88.80;69.13;;;;;;;;;;5075378;28;20052;-42
2021/06/07 02:05:26;;;;;;;63.70;52.90;;;;;;;;;;5075176;28;20032;-43
2021/06/07 02:07:54;;;;;;;44.22;38.47;;;;;;;;;;5075277;28;20024;-44
2021/06/07 02:10:22;;;;;;;33.83;25.90;;;;;;;;;;5075209;28;20024;-45
2021/06/07 02:12:48;;;;;;;23.25;17.38;;;;;;;;;;5075212;28;20031;-45
2021/06/07 02:15:14;;;;;;;22.70;18.27;;;;;;;;;;5075201;28;20473;-44
2021/06/07 02:17:41;;;;;;;19.20;15.48;;;;;;;;;;5075342;28;20028;-44
2021/06/07 02:20:09;;;;;;;21.85;14.45;;;;;;;;;;5074865;28;20540;-44
2021/06/07 02:22:39;;;;;;;18.08;14.02;;;;;;;;;;5074818;28;20491;-44
2021/06/07 02:25:06;;;;;;;20.90;12.40;;;;;;;;;;5074955;28;20032;-44
2021/06/07 02:27:33;;;;;;;18.42;12.23;;;;;;;;;;5075168;28;20025;-43
2021/06/07 02:29:59;;;;;;;21.38;13.27;;;;;;;;;;5074858;28;20028;-44
2021/06/07 02:32:26;;;;;;;17.83;12.95;;;;;;;;;;5074600;28;20443;-44
2021/06/07 02:34:52;;;;;;;14.35;12.07;;;;;;;;;;5074992;28;20177;-44
2021/06/07 02:37:18;;;;;;;17.80;13.00;;;;;;;;;;5074789;28;20103;-43
2021/06/07 02:39:44;;;;;;;16.00;12.38;;;;;;;;;;5074794;28;20380;-43
2021/06/07 02:42:11;;;;;;;22.75;12.57;;;;;;;;;;5074897;28;20039;-44
2021/06/07 02:44:37;;;;;;;16.92;14.93;;;;;;;;;;5074499;28;20024;-44
2021/06/07 02:47:03;;;;;;;30.95;19.90;;;;;;;;;;5056874;28;20469;-44
2021/06/07 02:49:29;;;;;;;21.50;18.30;;;;;;;;;;5074391;28;20129;-44
2021/06/07 02:51:55;;;;;;;26.35;18.77;;;;;;;;;;5074051;28;20045;-42
2021/06/07 02:54:21;;;;;;;20.15;14.73;;;;;;;;;;5056473;28;20158;-42
2021/06/07 02:56:48;;;;;;;21.88;14.15;;;;;;;;;;5073502;28;20066;-43
2021/06/07 02:59:14;;;;;;;18.38;13.23;;;;;;;;;;5074322;28;20024;-44
2021/06/07 03:01:40;;;;;;;16.38;12.63;;;;;;;;;;5074260;28;20048;-44
2021/06/07 03:04:06;;;;;;;27.25;12.10;;;;;;;;;;5074090;28;20036;-44
2021/06/07 03:06:32;;;;;;;18.60;11.90;;;;;;;;;;5074129;28;20078;-43
2021/06/07 03:08:59;;;;;;;18.73;12.10;;;;;;;;;;5074006;28;20021;-43
2021/06/07 03:11:25;;;;;;;22.73;12.40;;;;;;;;;;5074174;28;20391;-44
2021/06/07 03:13:53;;;;;;;20.63;11.80;;;;;;;;;;5073994;28;20153;-43
2021/06/07 03:16:19;;;;;;;18.73;13.52;;;;;;;;;;5073944;28;20016;-43
2021/06/07 03:18:45;;;;;;;18.48;12.85;;;;;;;;;;5073890;28;20071;-43
2021/06/07 03:21:11;;;;;;;19.52;12.95;;;;;;;;;;5073617;28;20039;-42
2021/06/07 03:23:39;;;;;;;16.50;13.00;;;;;;;;;;5073871;28;20028;-43
2021/06/07 03:26:05;;;;;;;18.95;13.88;;;;;;;;;;5073674;28;20025;-43
2021/06/07 03:28:32;;;;;;;16.95;12.88;;;;;;;;;;5074046;28;20036;-44
2021/06/07 03:30:59;;;;;;;17.90;12.35;;;;;;;;;;5073884;28;20095;-44
2021/06/07 03:33:25;;;;;;;17.80;12.70;;;;;;;;;;5073501;28;20039;-44
2021/06/07 03:35:52;;;;;;;16.23;12.68;;;;;;;;;;5073761;28;20099;-44
2021/06/07 03:38:18;;;;;;;17.55;11.00;;;;;;;;;;5073589;28;20036;-44
2021/06/07 03:40:47;;;;;;;19.60;12.02;;;;;;;;;;5073534;28;20020;-43
2021/06/07 03:43:13;;;;;;;18.88;12.75;;;;;;;;;;5073705;28;20034;-44
2021/06/07 03:45:39;;;;;;;31.58;17.88;;;;;;;;;;5073538;28;20115;-44
2021/06/07 03:48:06;;;;;;;29.27;15.90;;;;;;;;;;5073495;28;20024;-44
2021/06/07 03:50:33;;;;;;;25.25;14.27;;;;;;;;;;5073540;28;20029;-44
2021/06/07 03:52:59;;;;;;;26.77;20.10;;;;;;;;;;5073182;28;20137;-44
2021/06/07 03:55:26;;;;;;;27.52;16.48;;;;;;;;;;5073623;28;20469;-42
2021/06/07 03:57:52;;;;;;;18.45;12.73;;;;;;;;;;5073472;28;20028;-43
2021/06/07 04:00:20;;;;;;;18.17;12.60;;;;;;;;;;5073425;28;20067;-43
2021/06/07 04:02:47;;;;;;;25.25;17.20;;;;;;;;;;5073289;28;20380;-44
2021/06/07 04:05:14;;;;;;;20.35;13.40;;;;;;;;;;5073249;28;20540;-44
2021/06/07 04:07:40;;;;;;;15.38;10.82;;;;;;;;;;5073035;28;20032;-44
2021/06/07 04:10:08;;;;;;;17.25;11.73;;;;;;;;;;5073349;28;20024;-45
2021/06/07 04:12:35;;;;;;;25.95;11.90;;;;;;;;;;5073376;28;20028;-44
2021/06/07 04:15:01;;;;;;;14.13;11.13;;;;;;;;;;5073277;28;20100;-44
2021/06/07 04:17:31;;;;;;;16.35;11.70;;;;;;;;;;5073088;28;20017;-45
2021/06/07 04:19:57;;;;;;;18.90;11.52;;;;;;;;;;5073260;28;20045;-43
2021/06/07 04:22:23;;;;;;;15.85;9.95;;;;;;;;;;5073270;28;20024;-44
2021/06/07 04:24:49;;;;;;;19.38;10.82;;;;;;;;;;5073054;28;20103;-43
2021/06/07 04:27:16;;;;;;;21.23;10.60;;;;;;;;;;5073191;28;20020;-44
2021/06/07 04:29:43;;;;;;;16.00;10.98;;;;;;;;;;5073181;28;20123;-44
2021/06/07 04:32:09;;;;;;;16.10;10.05;;;;;;;;;;5072929;28;20026;-43
2021/06/07 04:34:36;;;;;;;12.98;9.20;;;;;;;;;;5073281;28;20040;-44
2021/06/07 04:37:02;;;;;;;15.85;10.00;;;;;;;;;;5072978;28;20035;-44
2021/06/07 04:39:28;;;;;;;11.93;9.20;;;;;;;;;;5072965;28;20063;-44
2021/06/07 04:41:54;;;;;;;17.73;9.25;;;;;;;;;;5073004;28;20021;-43
2021/06/07 04:44:20;;;;;;;17.23;9.57;;;;;;;;;;5072960;28;20020;-44
2021/06/07 04:46:46;;;;;;;16.52;9.30;;;;;;;;;;5072795;28;20032;-44
2021/06/07 04:49:12;;;;;;;11.00;8.77;;;;;;;;;;5072790;28;20031;-44
2021/06/07 04:51:39;;;;;;;22.35;10.63;;;;;;;;;;5072614;28;20051;-43
2021/06/07 04:54:05;;;;;;;19.20;13.50;;;;;;;;;;5072944;28;20090;-44
2021/06/07 04:56:33;;;;;;;27.40;16.20;;;;;;;;;;5072881;28;20099;-43
2021/06/07 04:58:59;;;;;;;16.95;10.88;;;;;;;;;;5072681;28;20027;-45
2021/06/07 05:01:25;;;;;;;19.42;11.80;;;;;;;;;;5072330;28;20060;-45
2021/06/07 05:03:52;;;;;;;24.55;14.68;;;;;;;;;;5072618;28;20063;-45
2021/06/07 05:06:18;;;;;;;19.90;11.30;;;;;;;;;;5072765;28;20035;-46
2021/06/07 05:08:44;;;;;;;14.02;9.38;;;;;;;;;;5072662;28;20024;-44
2021/06/07 05:11:11;;;;;;;20.10;15.13;;;;;;;;;;5054561;28;20400;-43
2021/06/07 05:13:37;;;;;;;16.13;11.68;;;;;;;;;;5072588;28;20033;-45
2021/06/07 05:16:03;;;;;;;19.63;14.27;;;;;;;;;;5072475;28;20029;-44
2021/06/07 05:18:31;;;;;;;62.33;44.63;;;;;;;;;;5072405;28;20395;-44
2021/06/07 05:20:57;;;;;;;30.52;18.48;;;;;;;;;;5075336;28;20388;-44
2021/06/07 05:23:23;;;;;;;28.48;20.15;;;;;;;;;;5076261;28;20025;-44
2021/06/07 05:25:49;;;;;;;29.77;18.05;;;;;;;;;;5075993;28;20021;-45
2021/06/07 05:28:17;;;;;;;29.90;13.55;;;;;;;;;;5075722;28;20107;-44
2021/06/07 05:30:45;;;;;;;30.75;17.17;;;;;;;;;;5075719;28;20025;-43
2021/06/07 05:33:11;;;;;;;39.92;19.30;;;;;;;;;;5075633;28;20028;-44
2021/06/07 05:35:39;;;;;;;42.63;24.67;;;;;;;;;;5075951;28;20021;-43
2021/06/07 05:38:06;;;;;;;17.75;11.75;;;;;;;;;;5075567;28;20021;-44
2021/06/07 05:40:32;;;;;;;19.88;12.45;;;;;;;;;;5075575;28;20488;-43
2021/06/07 05:42:58;;;;;;;21.35;11.00;;;;;;;;;;5075659;28;20055;-44
2021/06/07 05:45:25;;;;;;;25.42;12.60;;;;;;;;;;5075421;28;20488;-44
2021/06/07 05:47:54;;;;;;;28.35;16.98;;;;;;;;;;5075412;28;20476;-45
2021/06/07 05:50:21;;;;;;;28.17;18.77;;;;;;;;;;5074165;28;20546;-43
2021/06/07 05:52:47;;;;;;;11.43;9.57;;;;;;;;;;5074985;28;20484;-43
2021/06/07 05:55:18;;;;;;;258.02;124.43;;;;;;;;;;5075434;28;20021;-44
2021/06/07 05:57:45;;;;;;;29.70;19.83;;;;;;;;;;5075408;28;20025;-44
2021/06/07 06:00:12;;;;;;;28.45;14.70;;;;;;;;;;5075329;28;20079;-43
2021/06/07 06:02:38;;;;;;;18.20;12.07;;;;;;;;;;5075182;28;20024;-43
2021/06/07 06:05:05;;;;;;;24.48;13.20;;;;;;;;;;5075181;28;20024;-43
2021/06/07 06:07:32;;;;;;;49.17;22.95;;;;;;;;;;5075258;28;20028;-44
2021/06/07 06:09:58;;;;;;;151.30;40.35;;;;;;;;;;5074846;28;20035;-47
2021/06/07 06:12:24;;;;;;;32.95;15.50;;;;;;;;;;5075103;28;20488;-43
2021/06/07 06:14:50;;;;;;;22.45;11.27;;;;;;;;;;5075198;28;20029;-44
2021/06/07 06:17:16;;;;;;;13.57;7.97;;;;;;;;;;5074963;28;20605;-44
2021/06/07 06:19:42;;;;;;;40.45;19.35;;;;;;;;;;5075251;28;20026;-44
2021/06/07 06:22:08;;;;;;;16.45;10.52;;;;;;;;;;5075260;28;20029;-44
2021/06/07 06:24:35;;;;;;;14.30;8.20;;;;;;;;;;5074979;28;20033;-45
2021/06/07 06:27:01;;;;;;;21.05;12.02;;;;;;;;;;5075169;28;20024;-45
2021/06/07 06:29:27;;;;;;;16.17;10.68;;;;;;;;;;5074741;28;20028;-44
2021/06/07 06:31:53;;;;;;;14.18;9.00;;;;;;;;;;5073484;28;20074;-45
2021/06/07 06:34:20;;;;;;;15.73;7.90;;;;;;;;;;5074801;28;20066;-45
2021/06/07 06:36:46;;;;;;;27.48;18.45;;;;;;;;;;5074685;28;20078;-44
2021/06/07 06:39:12;;;;;;;10.60;7.43;;;;;;;;;;5074555;28;20039;-44
2021/06/07 06:41:38;;;;;;;9.27;7.18;;;;;;;;;;5074608;28;20021;-45
2021/06/07 06:44:05;;;;;;;21.65;13.20;;;;;;;;;;5074529;28;20024;-43
2021/06/07 06:46:31;;;;;;;42.55;29.05;;;;;;;;;;5074419;28;20468;-44
2021/06/07 06:48:57;;;;;;;21.92;14.85;;;;;;;;;;5074344;28;20051;-44
2021/06/07 06:51:23;;;;;;;14.20;7.38;;;;;;;;;;5074186;28;20060;-44
2021/06/07 06:53:49;;;;;;;8.55;5.38;;;;;;;;;;5074376;28;20043;-44
2021/06/07 06:56:16;;;;;;;21.80;13.38;;;;;;;;;;5074230;28;20028;-43
2021/06/07 06:58:42;;;;;;;17.90;9.35;;;;;;;;;;5074273;28;20056;-44
2021/06/07 07:01:08;;;;;;;49.47;32.63;;;;;;;;;;5074305;28;20024;-43
2021/06/07 07:03:35;;;;;;;51.28;34.67;;;;;;;;;;5073954;28;20514;-43
2021/06/07 07:06:01;;;;;;;61.85;37.42;;;;;;;;;;5074280;28;20052;-46
2021/06/07 07:08:29;;;;;;;49.20;28.80;;;;;;;;;;5074101;28;20052;-46
2021/06/07 07:10:55;;;;;;;40.47;26.98;;;;;;;;;;5074018;28;20032;-45
2021/06/07 07:13:22;;;;;;;20.80;16.15;;;;;;;;;;5074041;28;20374;-44
2021/06/07 07:15:48;;;;;;;24.98;15.60;;;;;;;;;;5073837;28;20495;-44
2021/06/07 07:18:14;;;;;;;8.10;6.05;;;;;;;;;;5074015;28;20043;-44
2021/06/07 07:20:44;;;;;;;17.85;13.30;;;;;;;;;;5074026;28;20492;-45
2021/06/07 07:23:10;;;;;;;45.78;32.63;;;;;;;;;;5074000;28;20103;-44
2021/06/07 07:25:37;;;;;;;28.40;22.00;;;;;;;;;;5073739;28;20021;-45
2021/06/07 07:28:05;;;;;;;17.02;12.65;;;;;;;;;;5074288;28;20100;-44
2021/06/07 07:30:31;;;;;;;13.23;7.80;;;;;;;;;;5073680;28;20024;-44
2021/06/07 07:32:58;;;;;;;9.40;5.70;;;;;;;;;;5073657;28;20362;-45
2021/06/07 07:35:25;;;;;;;13.57;8.73;;;;;;;;;;5073358;28;20031;-45
2021/06/07 07:37:51;;;;;;;11.70;4.38;;;;;;;;;;5073410;28;20065;-46
2021/06/07 07:40:20;;;;;;;7.65;3.78;;;;;;;;;;5073551;28;20218;-45
2021/06/07 07:42:47;;;;;;;8.75;6.78;;;;;;;;;;5073033;28;20480;-43
2021/06/07 07:45:13;;;;;;;16.27;13.10;;;;;;;;;;5073582;28;20020;-44
2021/06/07 07:47:40;;;;;;;25.73;21.10;;;;;;;;;;5073315;28;20028;-45
2021/06/07 07:50:07;;;;;;;11.80;9.98;;;;;;;;;;5073497;28;20028;-43
2021/06/07 07:52:33;;;;;;;22.77;16.10;;;;;;;;;;5073229;28;20071;-45
2021/06/07 07:55:00;;;;;;;34.97;20.60;;;;;;;;;;5073565;28;20396;-45
2021/06/07 07:57:26;;;;;;;20.50;14.07;;;;;;;;;;5073416;28;20548;-44
2021/06/07 07:59:52;;;;;;;8.65;7.07;;;;;;;;;;5072468;28;20460;-42
2021/06/07 08:02:19;;;;;;;30.55;18.95;;;;;;;;;;5073368;28;20108;-45
2021/06/07 08:04:46;;;;;;;10.25;6.85;;;;;;;;;;5073395;28;20089;-44
2021/06/07 08:07:12;;;;;;;11.65;4.30;;;;;;;;;;5073222;28;20033;-44
2021/06/07 08:09:38;;;;;;;24.08;16.67;;;;;;;;;;5073320;28;20062;-45
2021/06/07 08:12:05;;;;;;;18.15;7.82;;;;;;;;;;5073147;28;20048;-44
2021/06/07 08:14:31;;;;;;;14.73;10.32;;;;;;;;;;5073224;28;20033;-44
2021/06/07 08:16:57;;;;;;;11.95;7.57;;;;;;;;;;5073001;28;20021;-45
2021/06/07 08:19:24;;;;;;;11.07;6.95;;;;;;;;;;5073139;28;20380;-45
2021/06/07 08:21:50;;;;;;;5.18;3.05;;;;;;;;;;5073356;28;20443;-45
2021/06/07 08:24:16;;;;;;;15.35;7.38;;;;;;;;;;5073175;28;20102;-45
2021/06/07 08:26:42;;;;;;;15.20;9.00;;;;;;;;;;5073058;28;20025;-43
2021/06/07 08:29:09;;;;;;;10.25;5.07;;;;;;;;;;5073107;28;20082;-44
2021/06/07 08:31:35;;;;;;;12.32;7.15;;;;;;;;;;5072987;28;20020;-43
2021/06/07 08:34:02;;;;;;;13.85;10.30;;;;;;;;;;5072884;28;20384;-45
2021/06/07 08:36:28;;;;;;;29.65;22.92;;;;;;;;;;5073109;28;20070;-45
2021/06/07 08:38:54;;;;;;;9.55;4.43;;;;;;;;;;5072775;28;20112;-43
2021/06/07 08:41:20;;;;;;;12.55;8.07;;;;;;;;;;5073456;28;20047;-45
2021/06/07 08:43:46;;;;;;;12.80;7.88;;;;;;;;;;5073053;28;20075;-45
2021/06/07 08:46:13;;;;;;;13.02;8.13;;;;;;;;;;5072885;28;20503;-45
2021/06/07 08:48:39;;;;;;;11.38;4.20;;;;;;;;;;5072899;28;20120;-45
2021/06/07 08:51:06;;;;;;;15.63;9.02;;;;;;;;;;5072775;28;20043;-43
2021/06/07 08:53:32;;;;;;;8.55;4.45;;;;;;;;;;5072605;28;20396;-43
2021/06/07 08:55:59;;;;;;;27.02;6.72;;;;;;;;;;5076139;28;20032;-45
2021/06/07 08:58:25;;;;;;;15.68;8.05;;;;;;;;;;5076756;28;20029;-44
2021/06/07 09:00:52;;;;;;;15.70;5.65;;;;;;;;;;5076419;28;20052;-45
2021/06/07 09:03:20;;;;;;;8.68;3.22;;;;;;;;;;5076351;28;20024;-46
2021/06/07 09:05:47;;;;;;;10.18;5.07;;;;;;;;;;5076413;28;20052;-45
2021/06/07 09:08:15;;;;;;;17.38;12.32;;;;;;;;;;5076650;28;20024;-44
2021/06/07 09:10:42;;;;;;;20.35;15.98;;;;;;;;;;5076576;28;20028;-45
2021/06/07 09:13:10;;;;;;;29.52;20.63;;;;;;;;;;5076561;28;20036;-43
2021/06/07 09:15:38;;;;;;;21.67;12.57;;;;;;;;;;5076271;28;20067;-42
2021/06/07 09:18:05;;;;;;;19.48;12.13;;;;;;;;;;5076140;28;20032;-50
2021/06/07 09:20:32;;;;;;;10.40;6.22;;;;;;;;;;5076495;28;20036;-47
2021/06/07 09:22:59;;;;;;;5.22;2.97;;;;;;;;;;5076295;28;20017;-46
2021/06/07 09:25:28;;;;;;;11.95;4.78;;;;;;;;;;5076151;28;20058;-44
2021/06/07 09:28:15;;;;;;;10.68;4.45;;;;;;;;;;5076107;28;20017;-44
2021/06/07 09:30:41;;;;;;;25.73;15.23;;;;;;;;;;5013099;28;20034;-43
2021/06/07 09:33:18;;;;;;;22.77;4.80;;;;;;;;;;5003309;28;20043;-44
2021/06/07 09:35:45;;;;;;;19.50;14.43;;;;;;;;;;5002927;28;20555;-43
2021/06/07 09:38:12;;;;;;;38.55;25.75;;;;;;;;;;5003498;28;20025;-45
2021/06/07 09:40:39;;;;;;;9.25;3.65;;;;;;;;;;5004456;28;20026;-44
2021/06/07 09:43:05;;;;;;;9.85;4.93;;;;;;;;;;5003035;28;20125;-44
2021/06/07 09:45:54;;;;;;;20.20;15.25;;;;;;;;;;5000509;28;20022;-43
2021/06/07 09:48:27;;;;;;;39.35;27.65;;;;;;;;;;4989207;28;20034;-43
2021/06/07 09:50:53;;;;;;;16.00;7.43;;;;;;;;;;5004305;28;20022;-43
2021/06/07 09:53:38;;;;;;;10.85;7.82;;;;;;;;;;5003016;28;20536;-44
2021/06/07 09:56:05;;;;;;;32.60;18.60;;;;;;;;;;5003774;28;20026;-43
2021/06/07 09:58:31;;;;;;;17.15;9.88;;;;;;;;;;5002327;28;20098;-43
2021/06/07 10:00:57;;;;;;;42.05;27.98;;;;;;;;;;5003831;28;20069;-44
2021/06/07 10:03:27;;;;;;;29.17;18.73;;;;;;;;;;5003644;28;20038;-44
2021/06/07 10:06:00;;;;;;;31.52;21.92;;;;;;;;;;5001880;28;20014;-44
2021/06/07 10:08:40;;;;;;;23.85;16.60;;;;;;;;;;5058142;28;20037;-43
2021/06/07 10:11:16;;;;;;;97.93;69.00;;;;;;;;;;5073482;28;20029;-44
2021/06/07 10:13:42;;;;;;;16.42;11.57;;;;;;;;;;5073014;28;20120;-43
2021/06/07 10:16:09;;;;;;;23.58;18.60;;;;;;;;;;5074435;28;20016;-44
2021/06/07 10:18:36;;;;;;;13.23;8.60;;;;;;;;;;5057023;28;20025;-43
2021/06/07 10:21:04;;;;;;;56.67;43.40;;;;;;;;;;5074780;28;20079;-42
2021/06/07 10:23:31;;;;;;;18.52;10.45;;;;;;;;;;5075306;28;20028;-43
2021/06/07 10:25:59;;;;;;;16.63;10.65;;;;;;;;;;5075027;28;20024;-41
2021/06/07 10:28:26;;;;;;;10.40;5.20;;;;;;;;;;5074690;28;20028;-43
2021/06/07 10:30:55;;;;;;;14.30;10.02;;;;;;;;;;5074886;28;20021;-43
2021/06/07 10:33:25;;;;;;;21.05;13.18;;;;;;;;;;5074793;28;20060;-44
2021/06/07 10:35:52;;;;;;;6.75;2.95;;;;;;;;;;5074787;28;20024;-43
2021/06/07 10:38:29;;;;;;;10.63;7.70;;;;;;;;;;5074882;28;20033;-43
2021/06/07 10:41:18;;;;;;;18.70;14.82;;;;;;;;;;5074692;28;20029;-43
2021/06/07 10:43:45;;;;;;;16.67;11.93;;;;;;;;;;5074711;28;20024;-42
2021/06/07 10:46:31;;;;;;;27.23;19.55;;;;;;;;;;5074346;28;20025;-44
2021/06/07 10:49:00;;;;;;;18.13;12.60;;;;;;;;;;5074579;28;20028;-44
2021/06/07 10:51:30;;;;;;;16.90;10.52;;;;;;;;;;5074327;28;20048;-45
2021/06/07 10:54:15;;;;;;;24.40;17.00;;;;;;;;;;5074319;28;20040;-44
2021/06/07 10:56:41;;;;;;;21.27;13.38;;;;;;;;;;5074196;28;20016;-44
2021/06/07 10:59:16;;;;;;;20.40;14.25;;;;;;;;;;5074363;28;20461;-43
2021/06/07 11:01:49;;;;;;;9.75;6.22;;;;;;;;;;5074133;28;20067;-43
2021/06/07 11:04:32;;;;;;;24.48;18.70;;;;;;;;;;5074302;28;20070;-44
2021/06/07 11:07:07;;;;;;;28.80;21.92;;;;;;;;;;5073980;28;20369;-45
2021/06/07 11:09:34;;;;;;;21.33;16.05;;;;;;;;;;5073832;28;20078;-42
2021/06/07 11:12:03;;;;;;;22.67;16.02;;;;;;;;;;5073841;28;20020;-43
2021/06/07 11:14:30;;;;;;;10.80;6.38;;;;;;;;;;5073856;28;20067;-43
2021/06/07 11:16:57;;;;;;;5.63;2.95;;;;;;;;;;5073333;28;20027;-42
2021/06/07 11:19:23;;;;;;;15.98;9.80;;;;;;;;;;5073869;28;20029;-43
2021/06/07 11:22:02;;;;;;;11.20;8.85;;;;;;;;;;5073577;28;20060;-42
2021/06/07 11:24:37;;;;;;;4.22;2.92;;;;;;;;;;5074055;28;20401;-43
2021/06/07 11:27:05;;;;;;;14.13;11.05;;;;;;;;;;5073903;28;20512;-43
2021/06/07 11:29:31;;;;;;;5.30;2.22;;;;;;;;;;5073843;28;20059;-44
2021/06/07 11:32:03;;;;;;;58.47;33.33;;;;;;;;;;5073769;28;20488;-44
2021/06/07 11:34:39;;;;;;;41.58;34.72;;;;;;;;;;5073533;28;20476;-43
2021/06/07 11:37:05;;;;;;;35.25;24.77;;;;;;;;;;5073576;28;20024;-44
2021/06/07 11:39:43;;;;;;;48.65;33.67;;;;;;;;;;5073471;28;20388;-44
2021/06/07 11:42:29;;;;;;;27.42;14.70;;;;;;;;;;5073608;28;20535;-42
2021/06/07 11:44:59;;;;;;;8.45;4.20;;;;;;;;;;5073459;28;20027;-45
2021/06/07 11:47:48;;;;;;;16.80;5.88;;;;;;;;;;5073688;28;20031;-44
2021/06/07 11:50:18;;;;;;;29.23;17.00;;;;;;;;;;5073344;28;20052;-42
2021/06/07 11:52:49;;;;;;;6.80;4.35;;;;;;;;;;5072806;28;20052;-43
2021/06/07 11:55:16;;;;;;;4.72;3.40;;;;;;;;;;5072723;28;20071;-41
2021/06/07 11:57:42;;;;;;;11.20;3.35;;;;;;;;;;5072635;28;20016;-43
2021/06/07 12:00:08;;;;;;;39.05;30.35;;;;;;;;;;5072703;28;20087;-44
2021/06/07 12:02:34;;;;;;;18.65;14.25;;;;;;;;;;5069083;28;20021;-41
2021/06/07 12:05:08;;;;;;;85.00;70.13;;;;;;;;;;5070228;28;20384;-44
2021/06/07 12:07:36;;;;;;;19.90;16.40;;;;;;;;;;5068653;28;20133;-43
2021/06/07 12:10:05;;;;;;;21.73;14.43;;;;;;;;;;5072236;28;20031;-43
2021/06/07 12:12:31;;;;;;;24.05;16.75;;;;;;;;;;5069742;28;20009;-43
2021/06/07 12:14:57;;;;;;;34.47;19.55;;;;;;;;;;5072081;28;20538;-43
2021/06/07 12:17:24;;;;;;;16.27;11.50;;;;;;;;;;5072545;28;20025;-44
2021/06/07 12:19:51;;;;;;;10.38;6.68;;;;;;;;;;5070107;28;20464;-44
2021/06/07 12:22:26;;;;;;;7.80;3.17;;;;;;;;;;5072558;28;20031;-44
2021/06/07 12:28:19;;;;;;;19.92;13.07;;;;;;;;;;4991809;28;20486;-44
2021/06/07 12:30:49;;;;;;;20.27;13.35;;;;;;;;;;4995700;28;20026;-44
2021/06/07 12:33:28;;;;;;;22.20;12.65;;;;;;;;;;4995488;28;20041;-44
2021/06/07 12:35:55;;;;;;;25.45;15.48;;;;;;;;;;4995494;28;20041;-44
2021/06/07 12:38:21;;;;;;;20.42;11.35;;;;;;;;;;4993067;28;20382;-45
2021/06/07 12:40:51;;;;;;;25.38;14.38;;;;;;;;;;4970634;28;20027;-44
2021/06/07 12:43:19;;;;;;;17.80;10.55;;;;;;;;;;4970748;28;20460;-44
2021/06/07 12:45:48;;;;;;;17.67;10.25;;;;;;;;;;4970744;28;20038;-43
2021/06/07 12:48:17;;;;;;;5.05;3.58;;;;;;;;;;4971584;28;20041;-42
2021/06/07 12:51:06;;;;;;;21.30;12.70;;;;;;;;;;4971225;28;20050;-43
2021/06/07 12:53:33;;;;;;;10.20;7.13;;;;;;;;;;4969651;28;20053;-43
2021/06/07 12:56:04;;;;;;;10.20;7.63;;;;;;;;;;4969576;28;20577;-43
2021/06/07 12:58:31;;;;;;;10.77;3.63;;;;;;;;;;4969701;28;20038;-43
2021/06/07 13:01:01;;;;;;;33.88;25.23;;;;;;;;;;4969731;28;20207;-42
2021/06/07 13:03:31;;;;;;;33.13;22.63;;;;;;;;;;4976274;28;21067;-43
2021/06/07 13:05:59;;;;;;;11.63;4.35;;;;;;;;;;5004555;28;20133;-43
2021/06/07 13:08:26;;;;;;;13.40;9.20;;;;;;;;;;5008292;28;20440;-43
2021/06/07 13:10:59;;;;;;;15.07;12.25;;;;;;;;;;5007997;28;20038;-44
2021/06/07 13:13:30;;;;;;;30.85;19.40;;;;;;;;;;5008067;28;20037;-44
2021/06/07 13:15:56;;;;;;;13.05;8.40;;;;;;;;;;5006346;28;20029;-42
2021/06/07 13:18:22;;;;;;;18.85;12.20;;;;;;;;;;5007179;28;20175;-44
2021/06/07 13:21:03;;;;;;;22.45;13.90;;;;;;;;;;5007679;28;20838;-44
2021/06/07 13:23:33;;;;;;;17.08;10.88;;;;;;;;;;5007788;28;20109;-43
2021/06/07 13:26:20;;;;;;;16.30;11.45;;;;;;;;;;5008321;28;20025;-43
2021/06/07 13:28:46;;;;;;;7.05;5.10;;;;;;;;;;5007612;28;20104;-43
2021/06/07 13:31:12;;;;;;;16.00;8.10;;;;;;;;;;5038661;28;20405;-44
2021/06/07 13:33:40;;;;;;;35.08;8.13;;;;;;;;;;5048087;28;20159;-44
2021/06/07 13:36:07;;;;;;;152.80;137.05;;;;;;;;;;5048501;28;20013;-43
2021/06/07 13:38:35;;;;;;;15.60;7.43;;;;;;;;;;5048390;28;20033;-43
2021/06/07 13:41:11;;;;;;;15.63;6.82;;;;;;;;;;5048129;28;20640;-45
2021/06/07 13:43:37;;;;;;;15.90;10.85;;;;;;;;;;5048531;28;20121;-45
2021/06/07 13:46:04;;;;;;;29.35;10.88;;;;;;;;;;5048218;28;20024;-44
2021/06/07 13:48:34;;;;;;;29.70;19.90;;;;;;;;;;5048436;28;20023;-44
2021/06/07 13:51:01;;;;;;;7.40;4.32;;;;;;;;;;5047803;28;20140;-43
2021/06/07 13:53:30;;;;;;;12.70;8.98;;;;;;;;;;5047775;28;20052;-44
2021/06/07 13:55:56;;;;;;;12.27;7.10;;;;;;;;;;5047692;28;20031;-44
2021/06/07 13:58:24;;;;;;;14.55;8.98;;;;;;;;;;5048253;28;20040;-43
2021/06/07 14:00:51;;;;;;;9.75;5.43;;;;;;;;;;5047731;28;20114;-42
2021/06/07 14:03:18;;;;;;;41.00;22.52;;;;;;;;;;5047831;28;20075;-42
2021/06/07 14:05:45;;;;;;;16.35;10.18;;;;;;;;;;5047534;28;20017;-42
2021/06/07 14:08:13;;;;;;;15.00;8.00;;;;;;;;;;5047591;28;20033;-44
2021/06/07 14:10:39;;;;;;;14.18;9.18;;;;;;;;;;5047723;28;20029;-44
2021/06/07 14:13:06;;;;;;;21.70;12.38;;;;;;;;;;5047877;28;20035;-43
2021/06/07 14:15:32;;;;;;;49.13;34.85;;;;;;;;;;5046785;28;20055;-44
2021/06/07 14:17:58;;;;;;;181.18;101.35;;;;;;;;;;5047389;28;20475;-43
2021/06/07 14:20:24;;;;;;;32.35;20.95;;;;;;;;;;5047254;28;21666;-44
2021/06/07 14:25:37;;;;;;;49.05;28.30;;;;;;;;;;5047119;28;20856;-42
2021/06/07 14:28:09;;;;;;;41.20;24.02;;;;;;;;;;5047320;28;20063;-42
2021/06/07 14:30:36;;;;;;;70.60;41.65;;;;;;;;;;5047522;28;20144;-42